Time;durP1;ratioP1;P1;durP2;ratioP2;P2;SDS_P1;SDS_P2;PMS_P1;PMS_P2;Temp;Humidity;BMP_temperature;BMP_pressure;BME280_temperature;BME280_humidity;BME280_pressure;Samples;Min_cycle;Max_cycle;Signal;HPM_P1;HPM_P2
2022/12/23 01:54:51;;;;;;;128.35;69.67;;;;;;;0.11;91.16;93886.30;1822473;77;26207;-42
2022/12/23 01:57:18;;;;;;;118.05;60.88;;;;;;;0.09;91.43;93893.48;1789549;79;21002;-45
2022/12/23 02:05:18;;;;;;;85.70;52.03;;;;;;;0.37;92.37;93893.16;1793707;78;21106;-43
2022/12/23 02:10:37;;;;;;;77.03;45.52;;;;;;;0.59;92.53;93892.34;1799245;78;21003;-43
2022/12/23 02:13:28;;;;;;;78.92;47.70;;;;;;;0.69;92.30;93896.28;1739602;81;21147;-44
2022/12/23 02:16:16;;;;;;;101.90;56.42;;;;;;;0.74;92.33;93897.78;1732492;81;21095;-44
2022/12/23 02:18:57;;;;;;;100.97;54.88;;;;;;;0.76;91.98;93890.77;1722080;81;21155;-45
2022/12/23 02:21:58;;;;;;;122.42;62.62;;;;;;;0.83;91.96;93884.50;1734357;81;21462;-44
2022/12/23 02:24:48;;;;;;;109.50;59.77;;;;;;;0.96;92.19;93881.44;1696831;83;21928;-43
2022/12/23 02:27:25;;;;;;;101.45;60.50;;;;;;;1.08;91.89;93880.30;1721870;81;22097;-44
2022/12/23 02:30:18;;;;;;;133.32;66.62;;;;;;;1.16;91.43;93874.95;1731370;81;21569;-43
2022/12/23 02:33:25;;;;;;;128.42;67.50;;;;;;;1.17;90.94;93875.13;1662013;84;21056;-44
2022/12/23 02:36:00;;;;;;;134.00;67.65;;;;;;;1.21;91.10;93866.96;1674100;84;21191;-44
2022/12/23 02:39:04;;;;;;;124.15;62.45;;;;;;;1.30;91.04;93869.94;1675332;84;20978;-44
2022/12/23 02:41:55;;;;;;;96.32;52.70;;;;;;;1.42;91.54;93863.36;1651870;84;21182;-44
2022/12/23 02:44:30;;;;;;;141.97;70.50;;;;;;;1.59;90.82;93863.67;1614326;86;21067;-44
2022/12/23 02:47:05;;;;;;;157.18;80.15;;;;;;;1.62;90.19;93878.33;1608210;87;21110;-43
2022/12/23 02:49:34;;;;;;;113.47;60.80;;;;;;;1.56;89.07;93861.02;1602244;87;21070;-43
2022/12/23 02:52:05;;;;;;;162.15;78.92;;;;;;;1.50;88.70;93860.70;1591999;87;21663;-44
2022/12/23 02:54:37;;;;;;;142.85;72.95;;;;;;;1.47;88.45;93856.11;1629367;86;21148;-44
2022/12/23 02:57:05;;;;;;;123.50;65.75;;;;;;;1.49;88.66;93856.47;1615600;87;21093;-43
2022/12/23 02:59:38;;;;;;;238.75;103.50;;;;;;;1.52;88.46;93847.51;1644522;86;21633;-44
2022/12/23 03:02:05;;;;;;;257.60;113.35;;;;;;;1.57;88.58;93853.84;1613836;86;21502;-45
2022/12/23 03:04:32;;;;;;;177.87;82.12;;;;;;;1.61;88.07;93843.70;1616476;88;21596;-43
2022/12/23 03:06:59;;;;;;;101.42;57.05;;;;;;;1.61;87.83;93838.28;1605441;86;21169;-43
2022/12/23 03:09:47;;;;;;;97.95;55.70;;;;;;;1.59;87.66;93833.86;1612621;86;21156;-43
2022/12/23 03:12:46;;;;;;;71.28;41.18;;;;;;;1.60;87.70;93830.55;1563579;89;21071;-43
2022/12/23 03:15:22;;;;;;;63.52;37.08;;;;;;;1.63;88.02;93835.14;1608387;87;21105;-44
2022/12/23 03:18:11;;;;;;;69.42;40.23;;;;;;;1.72;88.13;93836.14;1599970;87;21113;-44
2022/12/23 03:20:55;;;;;;;65.30;38.60;;;;;;;1.78;88.26;93826.38;1592342;88;21919;-43
2022/12/23 03:23:32;;;;;;;62.10;37.55;;;;;;;1.80;87.64;93828.83;1597768;87;21029;-44
2022/12/23 03:26:13;;;;;;;55.70;36.75;;;;;;;1.72;87.52;93823.94;1593672;88;21065;-43
2022/12/23 03:29:00;;;;;;;56.15;35.30;;;;;;;1.64;87.61;93833.39;1618791;87;21858;-44
2022/12/23 03:31:29;;;;;;;71.77;40.28;;;;;;;1.64;87.99;93845.58;1617634;87;21105;-45
2022/12/23 03:34:01;;;;;;;66.22;39.73;;;;;;;1.72;88.71;93841.56;1609958;88;21242;-44
2022/12/23 03:36:35;;;;;;;59.88;36.05;;;;;;;1.87;89.16;93840.14;1609758;88;20982;-43
2022/12/23 03:39:02;;;;;;;59.33;34.08;;;;;;;1.96;88.81;93843.10;1605274;87;21218;-43
2022/12/23 03:41:34;;;;;;;56.83;37.00;;;;;;;2.01;88.53;93842.04;1600811;87;21140;-43
2022/12/23 03:44:09;;;;;;;68.85;44.45;;;;;;;2.02;88.28;93843.58;1595603;88;21061;-44
2022/12/23 03:46:42;;;;;;;47.85;32.40;;;;;;;2.11;88.70;93848.45;1614240;87;21155;-44
2022/12/23 03:49:14;;;;;;;64.62;39.80;;;;;;;2.26;89.32;93845.63;1623095;88;20993;-43
2022/12/23 03:51:55;;;;;;;53.45;35.70;;;;;;;2.39;88.86;93844.63;1579113;87;21177;-44
2022/12/23 03:54:29;;;;;;;61.92;39.30;;;;;;;2.39;88.17;93851.41;1568048;90;21220;-43
2022/12/23 03:57:03;;;;;;;60.75;41.02;;;;;;;2.41;88.43;93837.41;1561896;90;21005;-43
2022/12/23 03:59:35;;;;;;;66.67;46.48;;;;;;;2.47;87.86;93841.19;1535765;92;21526;-42
2022/12/23 04:02:10;;;;;;;53.40;37.20;;;;;;;2.45;87.57;93837.52;1547359;92;22367;-44
2022/12/23 04:05:16;;;;;;;43.80;28.55;;;;;;;2.45;87.83;93832.67;1533903;92;21590;-43
2022/12/23 04:08:12;;;;;;;54.05;37.00;;;;;;;2.52;88.21;93837.98;1544839;91;21617;-44
2022/12/23 04:10:39;;;;;;;76.55;42.62;;;;;;;2.58;88.45;93833.58;1534538;92;21025;-46
2022/12/23 04:13:06;;;;;;;48.15;30.05;;;;;;;2.70;88.23;93835.67;1502881;94;21360;-44
2022/12/23 04:15:33;;;;;;;50.38;34.38;;;;;;;2.70;87.78;93845.17;1542021;92;21190;-44
2022/12/23 04:18:00;;;;;;;47.17;31.07;;;;;;;2.64;87.48;93845.47;1492197;93;21305;-44
2022/12/23 04:20:26;;;;;;;47.40;33.80;;;;;;;2.55;87.66;93829.00;1520946;92;21220;-44
2022/12/23 04:22:53;;;;;;;38.73;29.32;;;;;;;2.57;88.06;93836.91;1510803;93;21749;-45
2022/12/23 04:25:20;;;;;;;53.08;32.08;;;;;;;2.67;88.67;93835.91;1503543;93;22463;-45
2022/12/23 04:27:46;;;;;;;50.33;31.57;;;;;;;2.79;88.62;93832.56;1499356;94;21118;-43
2022/12/23 04:30:13;;;;;;;80.70;45.92;;;;;;;2.96;88.48;93834.72;1499541;94;21224;-45
2022/12/23 04:32:40;;;;;;;70.80;41.75;;;;;;;3.07;87.76;93837.98;1517338;92;21070;-44
2022/12/23 04:35:09;;;;;;;57.65;34.05;;;;;;;3.07;87.21;93842.81;1497755;94;21671;-44
2022/12/23 04:37:36;;;;;;;38.48;26.07;;;;;;;3.02;86.86;93837.13;1522723;93;21912;-45
2022/12/23 04:40:04;;;;;;;36.50;24.85;;;;;;;3.00;87.04;93836.77;1519555;93;21077;-44
2022/12/23 04:42:33;;;;;;;39.60;25.77;;;;;;;2.98;87.00;93843.22;1514252;93;21156;-45
2022/12/23 04:45:00;;;;;;;36.68;25.92;;;;;;;3.03;87.31;93833.98;1545308;91;21054;-43
2022/12/23 04:47:27;;;;;;;34.70;23.65;;;;;;;3.04;86.81;93844.27;1564018;85;21030;-43
2022/12/23 04:49:54;;;;;;;168.37;67.03;;;;;;;2.99;86.74;93845.52;1684453;82;22296;-43
2022/12/23 04:52:20;;;;;;;79.47;44.35;;;;;;;3.03;87.44;93841.38;1689181;84;21117;-44
2022/12/23 04:54:47;;;;;;;114.55;54.30;;;;;;;3.09;87.01;93848.59;1698284;83;21074;-44
2022/12/23 04:57:15;;;;;;;116.47;54.13;;;;;;;3.13;87.07;93853.95;1704533;82;20967;-43
2022/12/23 04:59:41;;;;;;;79.47;43.65;;;;;;;3.16;86.57;93849.81;1755700;80;21060;-44
2022/12/23 05:02:10;;;;;;;80.55;46.25;;;;;;;3.23;86.62;93856.44;1722736;81;21002;-46
2022/12/23 05:04:36;;;;;;;66.05;44.33;;;;;;;3.27;86.22;93863.16;1765753;80;21527;-45
2022/12/23 05:07:03;;;;;;;66.37;41.42;;;;;;;3.18;86.14;93856.16;1751592;80;21187;-44
2022/12/23 05:09:29;;;;;;;95.40;52.50;;;;;;;3.11;86.02;93865.84;1751931;80;21120;-44
2022/12/23 05:11:56;;;;;;;125.80;55.95;;;;;;;3.12;86.43;93857.86;1746043;81;21091;-44
2022/12/23 05:14:23;;;;;;;160.78;70.15;;;;;;;3.22;86.56;93859.59;1748110;80;21277;-45
2022/12/23 05:16:50;;;;;;;117.95;55.78;;;;;;;3.34;86.73;93857.55;1755560;80;21013;-44
2022/12/23 05:19:17;;;;;;;77.32;41.10;;;;;;;3.48;86.42;93854.69;1753109;80;21085;-45
2022/12/23 05:21:43;;;;;;;82.62;47.27;;;;;;;3.52;85.79;93853.27;1750511;80;21053;-43
2022/12/23 05:24:10;;;;;;;84.50;48.02;;;;;;;3.46;85.61;93841.95;1752156;80;20974;-44
2022/12/23 05:26:38;;;;;;;81.97;48.10;;;;;;;3.47;85.75;93839.41;1771949;80;22213;-45
2022/12/23 05:29:05;;;;;;;128.40;68.87;;;;;;;3.44;85.49;93835.56;1738133;81;20989;-44
2022/12/23 05:31:31;;;;;;;120.15;63.78;;;;;;;3.40;85.25;93840.94;1732279;81;21017;-45
2022/12/23 05:33:58;;;;;;;216.48;101.18;;;;;;;3.37;85.31;93843.12;1763234;80;21488;-43
2022/12/23 05:36:25;;;;;;;121.92;66.07;;;;;;;3.42;85.45;93842.63;1772558;80;21529;-44
2022/12/23 05:38:52;;;;;;;99.72;58.02;;;;;;;3.43;85.33;93841.45;1750588;80;21863;-48
2022/12/23 05:41:18;;;;;;;118.90;68.12;;;;;;;3.43;85.26;93842.20;1758812;80;21058;-43
2022/12/23 05:43:45;;;;;;;88.70;53.00;;;;;;;3.47;85.62;93846.20;1749365;79;21071;-45
2022/12/23 05:46:12;;;;;;;81.30;49.25;;;;;;;3.50;85.20;93837.97;1730018;80;21080;-47
2022/12/23 05:48:38;;;;;;;96.78;55.00;;;;;;;3.48;85.40;93846.53;1775361;80;21047;-45
2022/12/23 05:51:05;;;;;;;75.40;46.58;;;;;;;3.57;85.76;93836.44;1754348;80;22152;-45
2022/12/23 05:53:32;;;;;;;96.15;54.38;;;;;;;3.66;85.58;93840.09;1775892;80;21001;-42
2022/12/23 05:56:05;;;;;;;124.53;71.05;;;;;;;3.62;84.28;93846.22;1786624;78;21006;-42
2022/12/23 05:58:32;;;;;;;111.90;66.12;;;;;;;3.49;84.86;93849.42;1784765;79;20979;-42
2022/12/23 06:01:02;;;;;;;101.22;62.10;;;;;;;3.47;84.46;93850.28;1773451;80;21493;-43
2022/12/23 06:03:29;;;;;;;80.85;50.38;;;;;;;3.35;84.43;93851.71;1784106;80;21498;-43
2022/12/23 06:05:55;;;;;;;52.83;36.68;;;;;;;3.37;85.20;93866.22;1785045;79;21081;-43
2022/12/23 06:08:22;;;;;;;46.58;32.38;;;;;;;3.48;85.64;93864.04;1780422;79;21403;-45
2022/12/23 06:10:48;;;;;;;54.53;36.98;;;;;;;3.56;85.17;93873.75;1777789;80;21018;-43
2022/12/23 06:13:15;;;;;;;66.22;43.83;;;;;;;3.55;84.99;93888.50;1748023;79;21054;-46
2022/12/23 06:15:42;;;;;;;67.20;47.38;;;;;;;3.53;84.72;93890.88;1780698;79;21295;-43
2022/12/23 06:18:09;;;;;;;62.43;44.38;;;;;;;3.52;84.88;93886.64;1780418;79;21022;-44
2022/12/23 06:20:36;;;;;;;65.08;42.80;;;;;;;3.58;85.36;93889.05;1777575;79;20983;-43
2022/12/23 06:23:03;;;;;;;109.30;64.03;;;;;;;3.65;85.12;93888.87;1783821;79;20991;-45
2022/12/23 06:25:29;;;;;;;119.35;69.62;;;;;;;3.68;84.62;93886.66;1781345;79;20974;-44
2022/12/23 06:27:56;;;;;;;117.80;70.30;;;;;;;3.61;84.27;93887.41;1764428;79;21160;-43
2022/12/23 06:30:22;;;;;;;107.30;68.17;;;;;;;3.51;84.28;93889.80;1804204;78;20939;-43
2022/12/23 06:32:50;;;;;;;106.72;65.57;;;;;;;3.40;84.18;93891.22;1731595;81;21085;-44
2022/12/23 06:35:17;;;;;;;135.63;77.95;;;;;;;3.31;84.25;93889.08;1724419;82;21076;-47
2022/12/23 06:37:44;;;;;;;180.95;100.67;;;;;;;3.31;84.84;93874.72;1750039;80;21534;-45
2022/12/23 06:40:12;;;;;;;217.37;111.22;;;;;;;3.34;85.00;93884.73;1718519;81;21332;-44
2022/12/23 06:42:39;;;;;;;179.12;100.40;;;;;;;3.42;84.87;93884.77;1724020;82;21080;-43
2022/12/23 06:45:08;;;;;;;188.60;105.85;;;;;;;3.41;84.74;93891.39;1718740;81;21151;-46
2022/12/23 06:47:37;;;;;;;214.68;118.85;;;;;;;3.37;85.21;93884.67;1727299;81;21032;-49
2022/12/23 06:50:09;;;;;;;161.70;94.20;;;;;;;3.40;85.74;93886.53;1739520;80;21079;-48
2022/12/23 06:52:37;;;;;;;194.45;113.20;;;;;;;3.47;85.62;93896.49;1703617;81;21448;-47
2022/12/23 06:55:10;;;;;;;176.05;99.42;;;;;;;3.51;85.93;93889.80;1720740;82;21586;-48
2022/12/23 06:57:37;;;;;;;253.42;127.17;;;;;;;3.58;85.75;93890.41;1696850;83;21410;-45
2022/12/23 07:00:06;;;;;;;243.85;123.25;;;;;;;3.61;85.40;93894.98;1779165;79;21034;-47
2022/12/23 07:02:35;;;;;;;232.72;123.20;;;;;;;3.60;85.41;93895.40;1769683;79;20991;-48
2022/12/23 07:05:06;;;;;;;255.90;145.87;;;;;;;3.59;85.67;93896.01;1725027;82;21533;-50
2022/12/23 07:07:33;;;;;;;244.10;140.12;;;;;;;3.65;86.09;93907.91;1711728;81;21115;-48
2022/12/23 07:10:00;;;;;;;214.08;123.18;;;;;;;3.72;85.72;93886.58;1785366;79;21485;-49
2022/12/23 07:12:28;;;;;;;181.60;109.35;;;;;;;3.75;85.63;93896.03;1706999;82;21087;-47
2022/12/23 07:14:55;;;;;;;152.00;94.05;;;;;;;3.78;85.31;93892.45;1769566;80;21148;-46
2022/12/23 07:17:21;;;;;;;146.77;86.53;;;;;;;3.79;85.13;93885.83;1771135;79;21410;-44
2022/12/23 07:19:48;;;;;;;142.65;89.85;;;;;;;3.84;85.63;93892.11;1749535;79;21106;-43
2022/12/23 07:22:16;;;;;;;171.53;96.00;;;;;;;3.95;85.76;93887.19;1751300;79;21049;-43
2022/12/23 07:24:43;;;;;;;239.78;117.35;;;;;;;4.03;85.46;93890.50;1791575;78;21489;-44
2022/12/23 07:27:10;;;;;;;225.25;123.82;;;;;;;4.04;85.10;93886.59;1778790;79;21066;-44
2022/12/23 07:29:50;;;;;;;196.82;109.32;;;;;;;4.05;85.21;93897.03;1777349;79;21189;-42
2022/12/23 07:32:28;;;;;;;202.90;109.40;;;;;;;4.08;84.99;93898.90;1783775;78;21052;-51
2022/12/23 07:34:55;;;;;;;206.10;118.47;;;;;;;4.08;84.99;93908.42;1787966;79;21258;-45
2022/12/23 07:37:22;;;;;;;134.55;84.87;;;;;;;4.10;84.60;93899.27;1721587;80;21104;-50
2022/12/23 07:39:49;;;;;;;174.45;109.27;;;;;;;4.06;84.43;93898.56;1697144;82;21136;-45
2022/12/23 07:42:17;;;;;;;152.20;100.12;;;;;;;4.01;84.27;93914.62;1749640;80;21810;-43
2022/12/23 07:44:44;;;;;;;111.10;76.07;;;;;;;4.01;84.92;93909.19;1714549;81;21064;-45
2022/12/23 07:47:11;;;;;;;114.30;77.78;;;;;;;4.05;84.73;93907.92;1729623;81;21014;-44
2022/12/23 07:49:38;;;;;;;110.57;75.37;;;;;;;4.06;84.45;93914.89;1723901;81;21089;-43
2022/12/23 07:52:05;;;;;;;100.25;67.20;;;;;;;4.03;84.74;93910.30;1733227;81;21137;-45
2022/12/23 07:54:32;;;;;;;108.12;72.08;;;;;;;4.13;84.74;93914.73;1733452;81;21574;-43
2022/12/23 07:56:58;;;;;;;191.98;108.47;;;;;;;4.18;84.59;93916.94;1743460;81;21120;-45
2022/12/23 07:59:26;;;;;;;121.95;80.67;;;;;;;4.24;84.62;93915.22;1794302;78;21078;-45
2022/12/23 08:01:53;;;;;;;112.88;73.67;;;;;;;4.27;84.14;93915.72;1782376;79;21510;-45
2022/12/23 08:04:20;;;;;;;95.77;64.00;;;;;;;4.23;84.18;93916.41;1792060;79;21052;-43
2022/12/23 08:06:48;;;;;;;89.72;58.48;;;;;;;4.22;84.15;93914.89;1794908;78;21230;-42
2022/12/23 08:09:15;;;;;;;78.78;50.30;;;;;;;4.22;84.32;93917.61;1766623;79;21048;-46
2022/12/23 08:11:43;;;;;;;75.65;45.28;;;;;;;4.28;84.93;93928.75;1775750;79;21536;-43
2022/12/23 08:14:11;;;;;;;115.37;73.17;;;;;;;4.41;85.25;93932.33;1768464;80;21375;-43
2022/12/23 08:16:38;;;;;;;165.47;98.75;;;;;;;4.53;85.46;93926.16;1745774;79;20999;-42
2022/12/23 08:19:05;;;;;;;184.43;110.08;;;;;;;4.56;84.87;93933.47;1770994;78;21296;-46
2022/12/23 08:21:32;;;;;;;184.60;106.40;;;;;;;4.54;84.57;93921.66;1781623;78;21146;-43
2022/12/23 08:23:59;;;;;;;168.30;100.58;;;;;;;4.58;84.90;93925.66;1783012;79;21553;-43
2022/12/23 08:26:26;;;;;;;217.22;126.95;;;;;;;4.66;84.92;93918.23;1764787;79;21018;-43
2022/12/23 08:28:53;;;;;;;227.30;138.18;;;;;;;4.76;85.06;93918.54;1769527;79;21107;-43
2022/12/23 08:31:27;;;;;;;192.57;121.80;;;;;;;4.93;85.34;93919.27;1790214;79;21177;-42
2022/12/23 08:33:55;;;;;;;171.28;107.12;;;;;;;5.12;85.78;93918.34;1808462;78;20934;-45
2022/12/23 08:36:27;;;;;;;139.72;90.03;;;;;;;5.31;85.73;93908.63;1763947;80;21077;-43
2022/12/23 08:38:55;;;;;;;171.80;108.35;;;;;;;5.47;85.82;93913.41;1692911;82;21120;-44
2022/12/23 08:41:26;;;;;;;148.45;93.40;;;;;;;5.64;85.61;93903.91;1659939;83;21172;-42
2022/12/23 08:43:53;;;;;;;117.67;79.12;;;;;;;5.79;84.95;93907.02;1707803;81;21955;-42
2022/12/23 08:46:20;;;;;;;88.40;55.70;;;;;;;5.89;84.22;93905.32;1693885;83;21073;-42
2022/12/23 08:48:47;;;;;;;67.37;45.28;;;;;;;6.01;83.95;93899.69;1684338;83;21742;-42
2022/12/23 08:51:15;;;;;;;68.17;45.38;;;;;;;6.14;83.40;93907.27;1699295;81;21097;-42
2022/12/23 08:53:43;;;;;;;104.90;60.95;;;;;;;6.24;83.09;93912.98;1691355;83;21653;-43
2022/12/23 08:56:16;;;;;;;124.25;82.00;;;;;;;6.36;82.74;93902.64;1707673;83;21152;-44
2022/12/23 08:58:45;;;;;;;167.37;109.22;;;;;;;6.42;81.68;93899.50;1663746;83;21129;-44
2022/12/23 09:01:14;;;;;;;167.30;106.10;;;;;;;6.38;81.09;93904.33;1647137;85;21078;-42
2022/12/23 09:03:41;;;;;;;160.70;104.80;;;;;;;6.34;80.78;93905.05;1645433;85;21181;-44
2022/12/23 09:06:12;;;;;;;161.32;105.05;;;;;;;6.30;80.63;93898.95;1670128;84;21033;-46
2022/12/23 09:08:40;;;;;;;168.47;107.63;;;;;;;6.24;80.52;93899.33;1657108;86;21881;-45
2022/12/23 09:11:13;;;;;;;136.10;89.75;;;;;;;6.24;80.51;93896.59;1656837;85;21068;-51
2022/12/23 09:13:39;;;;;;;127.47;82.10;;;;;;;6.26;80.52;93896.91;1658839;85;21624;-43
2022/12/23 09:16:07;;;;;;;109.15;71.30;;;;;;;6.29;80.58;93894.08;1655055;84;21413;-42
2022/12/23 09:18:34;;;;;;;97.17;63.35;;;;;;;6.30;80.41;93896.22;1647930;85;21136;-43
2022/12/23 09:21:05;;;;;;;90.22;55.28;;;;;;;6.26;80.54;93891.45;1651848;85;21315;-44
2022/12/23 09:23:32;;;;;;;99.07;60.78;;;;;;;6.28;80.66;93889.82;1649293;86;21609;-45
2022/12/23 09:25:59;;;;;;;92.97;59.18;;;;;;;6.29;80.53;93898.76;1649906;86;21695;-45
2022/12/23 09:28:26;;;;;;;107.78;61.88;;;;;;;6.34;80.82;93894.13;1660208;85;21129;-43
2022/12/23 09:31:01;;;;;;;147.98;88.67;;;;;;;6.45;80.71;93897.25;1656049;84;21089;-43
2022/12/23 09:33:30;;;;;;;95.00;61.83;;;;;;;6.55;80.32;93901.61;1640130;85;21576;-43
2022/12/23 09:36:00;;;;;;;88.55;58.45;;;;;;;6.58;80.03;93901.50;1669818;84;21236;-51
2022/12/23 09:38:27;;;;;;;117.82;72.12;;;;;;;6.58;79.94;93895.26;1686033;83;21035;-45
2022/12/23 09:41:04;;;;;;;123.82;79.50;;;;;;;6.63;80.03;93905.03;1664986;84;21085;-44
2022/12/23 09:43:59;;;;;;;104.72;71.97;;;;;;;6.72;79.88;93895.53;1682914;84;21137;-44
2022/12/23 09:46:27;;;;;;;102.50;68.28;;;;;;;6.81;79.49;93896.21;1664067;85;21281;-43
2022/12/23 09:49:10;;;;;;;108.42;68.78;;;;;;;6.82;79.36;93899.10;1684234;83;21170;-48
2022/12/23 09:51:37;;;;;;;97.40;59.38;;;;;;;6.84;79.23;93892.59;1629716;87;21164;-45
2022/12/23 09:54:19;;;;;;;127.17;69.67;;;;;;;6.87;79.07;93895.20;1642665;86;21155;-45
2022/12/23 09:57:09;;;;;;;147.20;89.95;;;;;;;6.90;79.32;93900.40;1619274;86;21161;-49
2022/12/23 10:00:06;;;;;;;178.53;112.70;;;;;;;6.96;79.48;93906.23;1640530;85;21282;-46
2022/12/23 10:03:14;;;;;;;161.80;99.10;;;;;;;7.04;79.31;93904.01;1674586;84;21730;-48
2022/12/23 10:05:53;;;;;;;205.22;127.12;;;;;;;7.10;79.16;93905.11;1640630;84;21627;-47
2022/12/23 10:08:38;;;;;;;155.80;94.65;;;;;;;7.15;79.55;93911.37;1632502;86;21103;-43
2022/12/23 10:11:16;;;;;;;150.53;92.47;;;;;;;7.31;79.90;93903.59;1577674;90;21695;-46
2022/12/23 10:13:48;;;;;;;202.78;126.82;;;;;;;7.53;79.79;93910.55;1573012;89;21734;-46
2022/12/23 10:16:25;;;;;;;198.45;121.62;;;;;;;7.68;79.28;93908.06;1532634;90;21127;-51
2022/12/23 10:19:03;;;;;;;171.80;110.03;;;;;;;7.81;79.36;93899.91;1532206;91;23086;-47
2022/12/23 10:21:47;;;;;;;160.52;101.50;;;;;;;8.04;79.45;93902.13;1546710;90;21234;-42
2022/12/23 10:24:34;;;;;;;172.17;108.47;;;;;;;8.28;79.11;93903.14;1500321;92;21149;-47
2022/12/23 10:27:24;;;;;;;156.72;106.22;;;;;;;8.45;78.58;93899.55;1480795;94;22319;-49
2022/12/23 10:29:52;;;;;;;249.70;136.68;;;;;;;8.68;78.52;93896.23;1489845;94;21842;-48
2022/12/23 10:32:59;;;;;;;240.50;139.12;;;;;;;8.93;77.79;93900.23;1495494;93;21116;-48
2022/12/23 10:35:53;;;;;;;216.60;126.53;;;;;;;9.12;76.72;93900.98;1489149;94;21183;-45
2022/12/23 10:38:54;;;;;;;205.25;123.33;;;;;;;9.30;75.81;93899.59;1471345;96;21180;-44
2022/12/23 10:41:37;;;;;;;207.77;125.35;;;;;;;9.32;75.45;93899.90;1492165;93;21535;-47
2022/12/23 10:44:42;;;;;;;174.77;107.37;;;;;;;9.39;75.20;93901.72;1509518;92;21110;-50
2022/12/23 10:47:35;;;;;;;164.57;100.07;;;;;;;9.44;74.83;93895.61;1511965;92;21825;-45
2022/12/23 10:50:23;;;;;;;132.07;78.85;;;;;;;9.53;74.23;93893.45;1450515;96;21190;-47
2022/12/23 10:52:52;;;;;;;107.87;67.85;;;;;;;9.65;73.49;93900.77;1459058;95;21127;-46
2022/12/23 10:55:29;;;;;;;60.20;38.65;;;;;;;9.78;72.50;93900.72;1462200;95;22560;-45
2022/12/23 10:58:00;;;;;;;41.63;28.25;;;;;;;9.90;71.40;93900.38;1463719;95;21160;-48
2022/12/23 11:00:28;;;;;;;30.05;19.07;;;;;;;10.04;70.72;93897.01;1456706;96;21223;-49
2022/12/23 11:03:22;;;;;;;22.25;14.53;;;;;;;10.20;69.90;93898.02;1459778;95;21243;-51
2022/12/23 11:05:51;;;;;;;15.35;11.80;;;;;;;10.25;69.20;93896.77;1473909;95;21147;-47
2022/12/23 11:27:02;;;;;;;12.63;9.05;;;;;;;11.08;64.16;93901.46;1833615;77;25982;-45
2022/12/23 11:29:33;;;;;;;8.80;6.47;;;;;;;11.06;63.90;93902.55;1789460;79;21061;-47
2022/12/23 11:32:01;;;;;;;11.12;6.83;;;;;;;11.10;63.75;93899.59;1742322;81;21121;-46
2022/12/23 11:34:36;;;;;;;10.65;7.83;;;;;;;11.36;63.30;93901.37;1761190;80;21049;-45
2022/12/23 11:37:03;;;;;;;11.90;9.83;;;;;;;11.50;61.94;93908.90;1750975;81;21137;-46
2022/12/23 11:39:33;;;;;;;7.60;6.83;;;;;;;11.40;61.92;93910.83;1723658;82;21112;-45
2022/12/23 11:42:21;;;;;;;14.18;8.33;;;;;;;11.29;62.00;93905.10;1655530;83;21029;-46
2022/12/23 11:44:51;;;;;;;11.68;8.95;;;;;;;11.26;62.00;93902.69;1673301;83;21282;-45
2022/12/23 11:47:37;;;;;;;8.80;7.42;;;;;;;11.17;62.06;93895.87;1662989;83;21054;-46
2022/12/23 11:50:29;;;;;;;10.75;7.85;;;;;;;11.06;62.45;93895.67;1651321;85;21081;-44
2022/12/23 11:53:21;;;;;;;10.63;8.13;;;;;;;10.96;62.82;93898.33;1663161;85;21380;-43
2022/12/23 11:56:02;;;;;;;23.52;12.33;;;;;;;10.84;62.96;93897.20;1560561;90;21090;-45
2022/12/23 11:58:29;;;;;;;17.15;9.98;;;;;;;10.72;63.36;93892.69;1565102;88;21304;-47
2022/12/23 12:00:58;;;;;;;11.50;6.33;;;;;;;10.65;63.52;93888.92;1595999;88;21163;-48
2022/12/23 12:03:32;;;;;;;9.60;5.90;;;;;;;10.72;63.60;93888.55;1629341;86;21120;-45
2022/12/23 12:06:04;;;;;;;16.07;11.28;;;;;;;10.89;63.24;93884.94;1559129;89;21276;-45
2022/12/23 12:08:37;;;;;;;17.98;12.10;;;;;;;11.03;62.95;93889.73;1561396;90;21344;-47
2022/12/23 12:11:17;;;;;;;19.60;11.08;;;;;;;11.08;62.74;93892.42;1564194;89;21822;-45
2022/12/23 12:13:48;;;;;;;21.23;12.45;;;;;;;11.02;62.76;93888.19;1549489;90;22557;-50
2022/12/23 12:16:38;;;;;;;20.12;12.07;;;;;;;11.20;62.79;93886.66;1533145;91;21146;-44
2022/12/23 12:19:37;;;;;;;20.90;14.18;;;;;;;11.53;62.00;93880.41;1529046;92;21129;-45
2022/12/23 12:22:10;;;;;;;22.90;13.55;;;;;;;12.09;61.11;93869.11;1530611;91;21081;-44
2022/12/23 12:24:42;;;;;;;19.50;14.15;;;;;;;12.95;59.46;93859.08;1515650;92;21226;-45
2022/12/23 12:27:09;;;;;;;20.23;13.95;;;;;;;14.04;57.15;93857.33;1472960;94;21171;-49
2022/12/23 12:29:47;;;;;;;18.30;11.63;;;;;;;15.15;53.82;93862.47;1505606;92;21218;-48
2022/12/23 12:32:34;;;;;;;13.85;9.68;;;;;;;15.94;50.95;93861.57;1515841;92;21139;-45
2022/12/23 12:35:16;;;;;;;20.72;12.68;;;;;;;15.84;49.61;93862.31;1518329;91;21187;-49
2022/12/23 12:37:56;;;;;;;26.82;18.48;;;;;;;14.94;50.23;93872.20;1522014;91;21495;-46
2022/12/23 12:40:41;;;;;;;28.32;18.90;;;;;;;14.06;51.74;93881.11;1421954;97;21155;-46
2022/12/23 12:43:19;;;;;;;25.82;17.70;;;;;;;13.28;53.30;93879.55;1423253;99;21308;-48
2022/12/23 12:46:07;;;;;;;24.60;16.32;;;;;;;12.58;54.84;93877.38;1447468;95;21124;-43
2022/12/23 12:48:46;;;;;;;21.52;13.78;;;;;;;12.09;56.27;93889.78;1487889;94;21108;-47
2022/12/23 12:51:35;;;;;;;15.75;10.43;;;;;;;11.72;57.27;93888.66;1522505;91;21665;-46
2022/12/23 12:54:22;;;;;;;20.48;13.70;;;;;;;11.38;58.31;93885.77;1541274;92;21169;-46
2022/12/23 12:56:56;;;;;;;35.85;22.13;;;;;;;11.05;59.33;93890.02;1533476;91;21129;-44
2022/12/23 12:59:28;;;;;;;22.55;13.75;;;;;;;10.78;60.48;93883.95;1532351;91;21202;-45
2022/12/23 13:02:35;;;;;;;33.18;22.42;;;;;;;10.60;61.13;93876.41;1510243;91;21085;-46
2022/12/23 13:05:42;;;;;;;33.70;22.62;;;;;;;10.51;61.68;93870.98;1510073;93;21373;-46
2022/12/23 13:08:17;;;;;;;35.00;24.47;;;;;;;10.38;62.19;93870.44;1518830;93;21659;-46
2022/12/23 13:11:06;;;;;;;40.35;26.25;;;;;;;10.20;62.55;93867.78;1560401;89;21174;-44
2022/12/23 13:14:00;;;;;;;48.95;31.27;;;;;;;10.06;63.18;93875.33;1552442;90;21586;-47
2022/12/23 13:16:45;;;;;;;;;;;;;;;9.91;63.79;93874.43;1557777;90;21259;-46
2022/12/23 13:19:39;;;;;;;68.80;37.67;;;;;;;9.77;64.37;93866.24;1544747;90;21210;-46
2022/12/23 13:22:16;;;;;;;70.55;44.23;;;;;;;9.62;64.76;93863.25;1538960;91;21980;-45
2022/12/23 13:25:22;;;;;;;41.50;26.77;;;;;;;9.46;65.22;93864.96;1542923;91;21095;-45
2022/12/23 13:28:16;;;;;;;27.75;19.35;;;;;;;9.31;65.74;93868.19;1535141;91;21123;-43
2022/12/23 13:30:49;;;;;;;30.52;19.98;;;;;;;9.15;66.37;93864.39;1506311;93;21204;-50
2022/12/23 13:33:37;;;;;;;79.95;50.52;;;;;;;9.01;66.79;93859.52;1473745;95;21774;-49
2022/12/23 13:36:23;;;;;;;62.13;33.92;;;;;;;8.91;67.25;93859.39;1478123;95;21660;-44
2022/12/23 13:39:20;;;;;;;202.80;72.60;;;;;;;8.82;67.72;93869.59;1515897;91;21188;-47
2022/12/23 13:41:52;;;;;;;162.03;69.30;;;;;;;8.72;68.22;93858.45;1530840;90;21119;-44
2022/12/23 13:44:19;;;;;;;101.18;54.40;;;;;;;8.65;68.46;93868.36;1509123;93;21740;-45
2022/12/23 13:47:03;;;;;;;75.75;40.88;;;;;;;8.55;68.40;93867.59;1513404;92;21885;-44
2022/12/23 13:50:09;;;;;;;74.40;49.13;;;;;;;8.40;68.72;93866.64;1504313;93;21089;-47
2022/12/23 13:53:05;;;;;;;70.28;45.52;;;;;;;8.23;69.02;93870.12;1514937;90;21157;-45
2022/12/23 13:55:59;;;;;;;86.45;50.28;;;;;;;8.08;69.78;93873.98;1505068;90;21243;-45
2022/12/23 13:58:29;;;;;;;125.90;71.53;;;;;;;7.99;70.27;93879.45;1549808;88;21287;-47
2022/12/23 14:01:13;;;;;;;135.22;78.80;;;;;;;7.86;70.38;93881.52;1595987;87;21296;-44
2022/12/23 14:03:46;;;;;;;162.18;87.15;;;;;;;7.74;70.67;93889.22;1609245;87;21116;-45
2022/12/23 14:06:31;;;;;;;116.80;61.85;;;;;;;7.63;71.16;93891.61;1587717;88;21141;-45
2022/12/23 14:08:58;;;;;;;102.45;58.95;;;;;;;7.56;71.44;93895.97;1599167;87;22324;-46
2022/12/23 14:11:30;;;;;;;92.82;51.60;;;;;;;7.46;71.56;93891.67;1603846;87;21145;-45
2022/12/23 14:14:01;;;;;;;98.22;56.10;;;;;;;7.34;71.92;93899.96;1619584;85;21176;-47